Latest Coastal Weather Observations for Port Macquarie Airport

IDN60701

Issued at 7:35 pm EST Thursday 31 July 2014 (issued every 10 minutes, with the page automatically refreshed every 10 minutes)

About coastal observations | Map of coastal stations | Coastal observations for NSW | Marine services | Other Formats
Station Details ID: 060139 Name: PORT MACQUARIE AIRPORT AWS Lat: -31.43 Lon: 152.87 Height: 4.2 m
Data from the previous 72 hours. | See also: Recent months at Port Macquarie Airport
Date/Time
EST
Temp

°C
Wind Pressure Rain
since 9am
mm
Weather Cloud Vis
km
Sea
Height
m
Swell
Dir
 
Speed
knots
Gust
knots
hPa Trend Height
m
Period
s
Dir
31/07:30pm 15.5 N 3 5 1012.6 - 0.0 - - 10 - - - -
31/07:00pm 16.0 N 6 8 1012.3 - 0.0 - - 10 - - - -
31/06:30pm 16.8 N 6 9 1012.2 - 0.0 - - 10 - - - -
31/06:00pm 17.0 N 6 8 1012.0 - 0.0 - - 10 - - - -
31/05:30pm 17.6 N 8 11 1011.8 - 0.0 - - 10 - - - -
31/05:00pm 19.1 NNE 10 15 1011.6 - 0.0 - - 10 - - - -
31/04:30pm 20.0 NNE 11 15 1011.4 - 0.0 - - 10 - - - -
31/04:00pm 20.7 NNE 12 17 1011.3 - 0.0 - - 10 - - - -
31/03:30pm 21.5 NNE 13 17 1011.4 - 0.0 - - 10 - - - -
31/03:00pm 22.9 NNE 12 17 1011.6 - 0.0 - - 10 - - - -
31/02:30pm 23.7 NNE 13 18 1011.8 - 0.0 - - 10 - - - -
31/02:00pm 24.0 NNE 13 19 1012.1 - 0.0 - - 10 - - - -
31/01:30pm 25.6 N 12 16 1012.7 - 0.0 - - 10 - - - -
31/01:00pm 23.2 ENE 8 11 1013.7 - 0.0 - - 10 - - - -
31/12:30pm 24.2 N 10 15 1014.7 - 0.0 - - 10 - - - -
31/12:00pm 21.8 E 7 9 1015.7 - 0.0 - - 10 - - - -
31/11:30am 22.0 NNE 5 7 1016.4 - 0.0 - - 10 - - - -
31/11:00am 20.8 N 5 7 1017.1 - 0.0 - - 10 - - - -
31/10:30am 19.5 W 3 5 1017.6 - 0.0 - - 10 - - - -
31/10:00am 17.5 WNW 4 6 1018.1 - 0.0 - - 10 - - - -
31/09:30am 15.5 N 5 6 1018.4 - 0.0 - - 10 - - - -
31/09:00am 13.9 WNW 3 4 1018.6 - 0.0 - - 10 - - - -
31/08:30am 12.5 WNW 4 6 1018.7 - 0.0 - - 10 - - - -
31/08:00am 10.0 NW 3 5 1018.8 - 0.0 - - 10 - - - -
31/07:30am 7.8 NW 4 5 1018.7 - 0.0 - - 10 - - - -
31/07:00am 6.4 NNW 5 6 1018.8 - 0.0 - - 10 - - - -
31/06:30am 5.5 N 4 5 1018.5 - 0.0 - - 10 - - - -
31/06:00am 5.5 N 2 4 1018.2 - 0.0 - - 10 - - - -
31/05:30am 5.1 WNW 3 4 1018.1 - 0.0 - - 10 - - - -
31/05:00am 6.0 NNW 1 3 1018.0 - 0.0 - - 10 - - - -
31/04:30am 3.9 CALM 0 0 1017.9 - 0.0 - - 10 - - - -
31/04:00am 4.0 CALM 0 0 1017.8 - 0.0 - - 10 - - - -
31/03:30am 5.9 WNW 3 5 1017.8 - 0.0 - - 10 - - - -
31/03:00am 6.1 N 4 5 1017.6 - 0.0 - - 10 - - - -
31/02:30am 4.9 CALM 0 0 1017.7 - 0.0 - - 9 - - - -
31/02:29am 5.1 CALM 0 0 1017.7 - 0.0 - - 9 - - - -
31/02:28am 5.4 CALM 0 0 1017.7 - 0.0 - - 9 - - - -
31/02:00am 5.2 CALM 0 0 1017.9 - 0.0 - - 4 - - - -
31/01:48am 5.7 CALM 0 0 1018.1 - 0.0 - - 5 - - - -
31/01:30am 5.9 N 2 4 1018.1 - 0.0 - - 10 - - - -
31/01:00am 6.4 N 1 3 1018.4 - 0.0 - - 8 - - - -
31/12:30am 7.1 N 4 5 1018.6 - 0.0 - - 10 - - - -
31/12:00am 7.1 N 4 5 1018.8 - 0.0 - - 10 - - - -
 
Date/Time
EST
Temp

°C
Wind Pressure Rain
since 9am
mm
Weather Cloud Vis
km
Sea
Height
m
Swell
Dir
 
Speed
knots
Gust
knots
hPa Trend Height
m
Period
s
Dir
30/11:30pm 6.4 S 4 4 1018.9 - 0.0 - - 10 - - - -
30/11:00pm 7.0 CALM 0 0 1018.8 - 0.0 - - 10 - - - -
30/10:30pm 7.2 CALM 0 0 1019.0 - 0.0 - - 10 - - - -
30/10:00pm 7.6 CALM 0 0 1018.9 - 0.0 - - 10 - - - -
30/09:30pm 8.7 NNW 4 6 1018.8 - 0.0 - - 10 - - - -
30/09:00pm 9.3 WNW 3 5 1018.9 - 0.0 - - 10 - - - -
30/08:30pm 11.5 NE 1 4 1018.7 - 0.0 - - 10 - - - -
30/08:00pm 13.2 NNE 2 4 1018.6 - 0.0 - - 10 - - - -
30/07:30pm 16.0 N 6 10 1018.1 - 0.0 - - 10 - - - -
30/07:00pm 15.2 N 5 6 1018.0 - 0.0 - - 10 - - - -
30/06:30pm 16.2 N 8 11 1017.6 - 0.0 - - 10 - - - -
30/06:00pm 17.0 NNE 7 9 1017.0 - 0.0 - - 10 - - - -
30/05:30pm 18.4 NNE 8 11 1016.8 - 0.0 - - 10 - - - -
30/05:00pm 20.0 NNE 8 10 1016.7 - 0.0 - - 10 - - - -
30/04:30pm 21.0 NE 6 8 1016.3 - 0.0 - - 10 - - - -
30/04:00pm 21.7 NE 7 9 1016.0 - 0.0 - - 10 - - - -
30/03:30pm 22.5 NE 8 11 1016.1 - 0.0 - - 10 - - - -
30/03:00pm 22.0 ENE 8 10 1016.3 - 0.0 - - 10 - - - -
30/02:30pm 23.2 NE 7 9 1016.5 - 0.0 - - 10 - - - -
30/02:00pm 24.1 N 7 9 1016.8 - 0.0 - - 10 - - - -
30/01:30pm 23.7 N 8 11 1017.2 - 0.0 - - 10 - - - -
30/01:00pm 23.7 N 8 11 1017.7 - 0.0 - - 10 - - - -
30/12:30pm 23.9 N 7 11 1018.3 - 0.0 - - 10 - - - -
30/12:00pm 22.6 N 6 9 1019.1 - 0.0 - - 10 - - - -
30/11:30am 21.1 N 5 7 1019.8 - 0.0 - - 10 - - - -
30/11:00am 19.8 NNE 5 7 1020.2 - 0.0 - - 10 - - - -
30/10:30am 18.5 NW 3 5 1020.8 - 0.0 - - 10 - - - -
30/10:00am 16.5 NNW 5 6 1020.9 - 0.0 - - 10 - - - -
30/09:30am 14.2 NNW 2 4 1021.2 - 0.0 - - 10 - - - -
30/09:00am 11.8 NNW 4 5 1021.1 - 0.0 - - 10 - - - -
30/08:30am 9.6 NNW 5 6 1021.0 - 0.0 - - 10 - - - -
30/08:00am 8.0 CALM 0 0 1020.9 - 0.0 - - 10 - - - -
30/07:30am 6.0 NNW 1 4 1020.6 - 0.0 - - 10 - - - -
30/07:00am 5.1 CALM 0 2 1020.5 - 0.0 - - 10 - - - -
30/06:30am 4.7 NNW 2 3 1020.2 - 0.0 - - 10 - - - -
30/06:00am 4.5 CALM 0 0 1019.9 - 0.0 - - 10 - - - -
30/05:30am 4.5 N 1 4 1019.6 - 0.0 - - 10 - - - -
30/05:00am 4.6 N 3 4 1019.4 - 0.0 - - 10 - - - -
30/04:30am 3.7 CALM 0 0 1019.2 - 0.0 - - 10 - - - -
30/04:00am 4.8 NNW 2 3 1019.0 - 0.0 - - 10 - - - -
30/03:30am 4.0 NNW 3 4 1019.0 - 0.0 - - 10 - - - -
30/03:00am 4.4 NNW 2 5 1019.0 - 0.0 - - 10 - - - -
30/02:30am 4.8 NW 3 4 1019.2 - 0.0 - - 10 - - - -
30/02:00am 3.8 NW 2 4 1019.1 - 0.0 - - 10 - - - -
30/01:30am 4.8 NW 4 5 1019.3 - 0.0 - - 10 - - - -
30/01:28am 4.6 NW 3 5 1019.3 - 0.0 - - 10 - - - -
30/01:12am 4.8 CALM 0 0 1019.4 - 0.0 - - 5 - - - -
30/01:00am 4.5 CALM 0 0 1019.5 - 0.0 - - 10 - - - -
30/12:30am 4.7 NW 1 4 1019.6 - 0.0 - - 10 - - - -
30/12:00am 5.9 NE 2 3 1019.7 - 0.0 - - 10 - - - -
 
Date/Time
EST
Temp

°C
Wind Pressure Rain
since 9am
mm
Weather Cloud Vis
km
Sea
Height
m
Swell
Dir
 
Speed
knots
Gust
knots
hPa Trend Height
m
Period
s
Dir
29/11:30pm 6.1 NW 7 9 1019.5 - 0.0 - - 10 - - - -
29/11:00pm 6.4 WSW 4 5 1019.8 - 0.0 - - 10 - - - -
29/10:30pm 6.5 N 3 5 1019.8 - 0.0 - - 10 - - - -
29/10:00pm 6.7 NNW 3 4 1019.9 - 0.0 - - 10 - - - -
29/09:30pm 7.4 N 3 5 1019.7 - 0.0 - - 10 - - - -
29/09:00pm 8.1 CALM 0 0 1019.6 - 0.0 - - 10 - - - -
29/08:30pm 10.0 N 3 4 1019.6 - 0.0 - - 10 - - - -
29/08:00pm 10.0 NW 6 9 1019.6 - 0.0 - - 10 - - - -
29/07:30pm 10.3 WNW 3 5 1019.3 - 0.0 - - 10 - - - -
29/07:00pm 11.8 WSW 2 4 1019.0 - 0.0 - - 10 - - - -
29/06:30pm 14.4 N 4 6 1018.8 - 0.0 - - 10 - - - -
29/06:00pm 15.7 N 4 6 1018.3 - 0.0 - - 10 - - - -
29/05:30pm 16.0 NNE 5 6 1018.0 - 0.0 - - 10 - - - -
29/05:00pm 18.0 NNE 7 9 1017.7 - 0.0 - - 10 - - - -
29/04:30pm 18.9 NE 9 12 1017.5 - 0.0 - - 10 - - - -
29/04:00pm 19.6 NE 9 11 1017.5 - 0.0 - - 10 - - - -
29/03:30pm 19.9 NE 10 13 1017.0 - 0.0 - - 10 - - - -
29/03:00pm 20.3 NE 10 13 1016.8 - 0.0 - - 10 - - - -
29/02:30pm 22.6 NNW 5 9 1016.9 - 0.0 - - 10 - - - -
29/02:00pm 22.2 NW 6 10 1017.4 - 0.0 - - 10 - - - -
29/01:30pm 22.0 W 7 10 1017.9 - 0.0 - - 10 - - - -
29/01:00pm 21.7 WSW 8 12 1018.3 - 0.0 - - 10 - - - -
29/12:30pm 21.2 WNW 8 12 1018.8 - 0.0 - - 10 - - - -
29/12:00pm 20.5 W 10 15 1019.3 - 0.0 - - 10 - - - -
29/11:30am 19.7 WNW 9 14 1019.9 - 0.0 - - 10 - - - -
29/11:00am 18.2 WNW 7 11 1020.7 - 0.0 - - 10 - - - -
29/10:30am 16.8 NW 7 11 1021.2 - 0.0 - - 10 - - - -
29/10:00am 15.3 NNW 6 8 1021.5 - 0.0 - - 10 - - - -
29/09:30am 14.4 NW 6 8 1021.7 - 0.0 - - 10 - - - -
29/09:00am 12.1 NW 5 7 1021.7 - 0.0 - - 10 - - - -
29/08:30am 9.9 NW 5 7 1021.6 - 0.0 - - 10 - - - -
29/08:00am 6.8 NW 6 8 1021.6 - 0.0 - - 10 - - - -
29/07:30am 5.9 NW 6 7 1021.4 - 0.0 - - 10 - - - -
29/07:00am 5.0 NW 6 8 1021.1 - 0.0 - - 10 - - - -
29/06:30am 7.0 WNW 7 9 1020.9 - 0.0 - - 10 - - - -
29/06:00am 6.4 WNW 7 9 1020.8 - 0.0 - - 10 - - - -
29/05:30am 7.0 W 6 8 1020.4 - 0.0 - - 10 - - - -
29/05:00am 6.7 W 6 7 1020.0 - 0.0 - - 10 - - - -
29/04:30am 4.1 WNW 3 6 1019.8 - 0.0 - - 10 - - - -
29/04:00am 4.7 CALM 0 0 1019.8 - 0.0 - - 10 - - - -
29/03:30am 4.9 N 2 5 1019.8 - 0.0 - - 10 - - - -
29/03:00am 5.1 WNW 2 5 1019.6 - 0.0 - - 10 - - - -
29/02:30am 8.3 W 6 9 1019.7 - 0.0 - - 10 - - - -
29/02:00am 6.9 WNW 5 6 1019.6 - 0.0 - - 10 - - - -
29/01:30am 9.5 W 7 9 1019.9 - 0.0 - - 10 - - - -
29/01:00am 9.3 W 7 9 1020.0 - 0.0 - - 10 - - - -
29/12:30am 9.6 W 7 9 1020.2 - 0.0 - - 10 - - - -
29/12:00am 8.4 W 5 7 1020.4 - 0.0 - - 10 - - - -
 
Date/Time
EST
Temp

°C
Wind Pressure Rain
since 9am
mm
Weather Cloud Vis
km
Sea
Height
m
Swell
Dir
 
Speed
knots
Gust
knots
hPa Trend Height
m
Period
s
Dir
28/11:30pm 7.9 SSW 1 3 1020.6 - 0.0 - - 10 - - - -
28/11:00pm 7.6 WSW 1 4 1020.8 - 0.0 - - 10 - - - -
28/10:30pm 6.5 WSW 4 5 1020.8 - 0.0 - - 10 - - - -
28/10:00pm 6.7 CALM 0 0 1020.8 - 0.0 - - 10 - - - -
28/09:59pm 6.7 CALM 0 0 1020.8 - 0.0 - - 10 - - - -
28/09:41pm 6.8 CALM 0 0 1020.8 - 0.0 - - 5 - - - -
28/09:30pm 7.4 CALM 0 0 1020.8 - 0.0 - - 10 - - - -
28/09:00pm 7.4 CALM 0 0 1020.9 - 0.0 - - 10 - - - -
28/08:30pm 7.8 CALM 0 0 1020.8 - 0.0 - - 10 - - - -
28/08:00pm 8.9 SW 1 3 1020.5 - 0.0 - - 10 - - - -

Other Formats:

Comma delimited format used in spreadsheet applications
http://www.bom.gov.au/fwo/IDN60701/IDN60701.94786.axf

JavaScript Object Notation format (JSON) in row-major order
http://www.bom.gov.au/fwo/IDN60701/IDN60701.94786.json